createdAt,value
2022-07-28T00:01:24.249Z,47.08
2022-07-28T00:03:50.832Z,47.08
2022-07-28T00:06:17.535Z,47.43
2022-07-28T00:08:44.161Z,47.61
2022-07-28T00:11:11.077Z,47.35
2022-07-28T00:13:37.732Z,47.45
2022-07-28T00:16:04.617Z,47.64
2022-07-28T00:18:31.254Z,47.44
2022-07-28T00:20:58.142Z,47.89
2022-07-28T00:23:39.575Z,47.63
2022-07-28T00:26:08.540Z,48.07
2022-07-28T00:28:35.694Z,48.31
2022-07-28T00:31:05.515Z,48.32
2022-07-28T00:33:36.203Z,48.49
2022-07-28T00:36:03.822Z,48.51
2022-07-28T00:38:30.357Z,48.44
2022-07-28T00:41:11.915Z,48.62
2022-07-28T00:43:39.014Z,48.84
2022-07-28T00:46:06.079Z,48.59
2022-07-28T00:48:32.713Z,48.79
2022-07-28T00:50:59.347Z,49.11
2022-07-28T00:53:26.659Z,48.54
2022-07-28T00:56:05.568Z,48.90
2022-07-28T00:58:33.537Z,48.80
2022-07-28T01:01:00.096Z,49.12
2022-07-28T01:03:27.701Z,48.88
2022-07-28T01:06:03.394Z,49.24
2022-07-28T01:08:40.895Z,49.19
2022-07-28T01:11:17.659Z,49.20
2022-07-28T01:14:29.746Z,48.97
2022-07-28T01:16:56.271Z,49.39
2022-07-28T01:19:37.756Z,49.51
2022-07-28T01:22:09.168Z,49.36
2022-07-28T01:24:48.622Z,49.49
2022-07-28T01:27:24.397Z,49.23
2022-07-28T01:30:32.971Z,49.22
2022-07-28T01:33:15.346Z,49.34
2022-07-28T01:35:54.684Z,49.64
2022-07-28T01:38:23.810Z,49.52
2022-07-28T01:40:53.075Z,49.54
2022-07-28T01:43:24.384Z,49.35
2022-07-28T01:45:51.823Z,49.78
2022-07-28T01:48:20.545Z,49.56
2022-07-28T01:50:50.805Z,49.56
2022-07-28T01:53:17.972Z,49.71
2022-07-28T01:55:46.255Z,50.05
2022-07-28T01:58:14.151Z,50.55
2022-07-28T02:00:42.833Z,50.85
2022-07-28T02:03:11.732Z,51.12
2022-07-28T02:05:41.353Z,50.95
2022-07-28T02:08:09.712Z,51.08
2022-07-28T02:10:38.016Z,51.16
2022-07-28T02:13:06.807Z,50.91
2022-07-28T02:15:34.553Z,51.19
2022-07-28T02:18:02.518Z,51.16
2022-07-28T02:20:30.159Z,51.65
2022-07-28T02:22:57.856Z,51.57
2022-07-28T02:25:24.522Z,51.38
2022-07-28T02:27:58.422Z,51.56
2022-07-28T02:30:35.512Z,51.70
2022-07-28T02:33:11.287Z,51.52
2022-07-28T02:36:10.795Z,51.81
2022-07-28T02:38:45.116Z,52.08
2022-07-28T02:41:18.878Z,51.99
2022-07-28T02:43:50.112Z,52.39
2022-07-28T02:46:22.019Z,52.21
2022-07-28T02:48:56.538Z,52.29
2022-07-28T02:51:28.530Z,52.42
2022-07-28T02:53:56.076Z,52.68
2022-07-28T02:56:23.126Z,52.00
2022-07-28T02:58:51.459Z,52.63
2022-07-28T03:01:19.544Z,52.73
2022-07-28T03:03:50.037Z,52.71
2022-07-28T03:06:18.153Z,52.92
2022-07-28T03:08:44.739Z,53.07
2022-07-28T03:11:13.253Z,53.46
2022-07-28T03:13:40.397Z,53.15
2022-07-28T03:16:07.903Z,53.60
2022-07-28T03:18:35.054Z,53.13
2022-07-28T03:21:01.740Z,53.53
2022-07-28T03:23:33.161Z,53.55
2022-07-28T03:26:05.660Z,53.58
2022-07-28T03:28:33.797Z,53.75
2022-07-28T03:31:05.906Z,53.44
2022-07-28T03:33:33.479Z,53.29
2022-07-28T03:36:09.341Z,53.53
2022-07-28T03:38:41.068Z,53.40
2022-07-28T03:41:10.168Z,53.58
2022-07-28T03:43:37.959Z,54.10
2022-07-28T03:46:05.855Z,53.96
2022-07-28T03:48:35.296Z,53.84
2022-07-28T03:51:02.018Z,53.98
2022-07-28T03:53:29.789Z,53.91
2022-07-28T03:55:57.467Z,54.08
2022-07-28T03:58:28.545Z,53.85
2022-07-28T04:00:56.661Z,54.07
2022-07-28T04:03:43.082Z,53.94
2022-07-28T04:06:09.938Z,54.13
2022-07-28T04:08:36.544Z,54.08
2022-07-28T04:11:03.086Z,54.24
2022-07-28T04:13:32.157Z,54.17
2022-07-28T04:16:00.159Z,53.98
2022-07-28T04:18:26.810Z,54.03
2022-07-28T04:20:53.353Z,53.85
2022-07-28T04:23:20.979Z,54.07
2022-07-28T04:25:47.581Z,54.10
2022-07-28T04:28:15.461Z,54.05
2022-07-28T04:30:44.123Z,54.69
2022-07-28T04:33:12.121Z,54.66
2022-07-28T04:35:38.811Z,56.11
2022-07-28T04:38:05.936Z,55.82
2022-07-28T04:40:34.425Z,56.47
2022-07-28T04:43:01.089Z,55.72
2022-07-28T04:45:27.712Z,56.39
2022-07-28T04:47:54.431Z,55.89
2022-07-28T04:50:21.637Z,55.94
2022-07-28T04:52:51.175Z,55.63
2022-07-28T04:55:18.481Z,55.47
2022-07-28T04:57:45.162Z,55.00
2022-07-28T05:00:14.360Z,54.91
2022-07-28T05:02:42.695Z,54.75
2022-07-28T05:05:10.058Z,54.66
2022-07-28T05:07:38.414Z,54.61
2022-07-28T05:10:08.898Z,54.56
2022-07-28T05:12:35.589Z,54.48
2022-07-28T05:15:02.266Z,54.76
2022-07-28T05:17:28.876Z,53.90
2022-07-28T05:19:55.388Z,53.90
2022-07-28T05:22:21.945Z,54.40
2022-07-28T05:24:48.539Z,53.87
2022-07-28T05:27:15.093Z,54.40
2022-07-28T05:29:47.618Z,54.19
2022-07-28T05:32:16.986Z,53.67
2022-07-28T05:34:44.388Z,53.45
2022-07-28T05:37:10.922Z,53.33
2022-07-28T05:39:37.625Z,53.45
2022-07-28T05:42:04.320Z,52.95
2022-07-28T05:44:35.761Z,53.41
2022-07-28T05:47:04.397Z,52.72
2022-07-28T05:49:31.521Z,53.20
2022-07-28T05:51:58.087Z,52.45
2022-07-28T05:54:24.768Z,52.32
2022-07-28T05:56:52.488Z,52.54
2022-07-28T05:59:19.142Z,52.17
2022-07-28T06:01:46.065Z,51.95
2022-07-28T06:04:29.372Z,51.80
2022-07-28T06:06:56.352Z,51.61
2022-07-28T06:09:22.907Z,51.44
2022-07-28T06:11:50.626Z,51.24
2022-07-28T06:14:18.110Z,50.83
2022-07-28T06:16:45.210Z,50.52
2022-07-28T06:19:11.796Z,49.63
2022-07-28T06:21:38.414Z,49.70
2022-07-28T06:24:05.369Z,49.32
2022-07-28T06:26:31.937Z,49.33
2022-07-28T06:28:58.702Z,49.69
2022-07-28T06:31:25.461Z,49.05
2022-07-28T06:33:52.084Z,47.94
2022-07-28T06:36:18.671Z,46.29
2022-07-28T06:38:45.255Z,46.17
2022-07-28T06:41:12.134Z,44.95
2022-07-28T06:43:39.364Z,44.68
2022-07-28T06:46:06.284Z,44.56
2022-07-28T06:48:32.945Z,43.30
2022-07-28T06:50:59.886Z,41.79
2022-07-28T06:53:27.976Z,42.17
2022-07-28T06:56:00.887Z,41.49
2022-07-28T06:58:27.472Z,41.68
2022-07-28T07:00:54.918Z,41.74
2022-07-28T07:03:21.612Z,42.86
2022-07-28T07:05:49.069Z,42.52
2022-07-28T07:08:20.775Z,43.21
2022-07-28T07:10:47.552Z,43.71
2022-07-28T07:13:14.142Z,43.79
2022-07-28T07:15:40.824Z,42.47
2022-07-28T07:18:07.501Z,42.62
2022-07-28T07:20:34.027Z,40.90
2022-07-28T07:23:00.781Z,40.67
2022-07-28T07:25:27.493Z,41.37
2022-07-28T07:27:54.040Z,40.94
2022-07-28T07:30:20.669Z,40.09
2022-07-28T07:32:47.290Z,39.27
2022-07-28T07:35:13.867Z,39.62
2022-07-28T07:37:40.967Z,39.83
2022-07-28T07:40:08.355Z,39.90
2022-07-28T07:42:35.115Z,40.09
2022-07-28T07:45:02.144Z,39.84
2022-07-28T07:47:28.901Z,41.24
2022-07-28T07:49:55.656Z,40.60
2022-07-28T07:52:22.280Z,39.54
2022-07-28T07:54:48.865Z,40.17
2022-07-28T07:57:15.639Z,39.54
2022-07-28T07:59:42.159Z,39.88
2022-07-28T08:02:08.910Z,39.68
2022-07-28T08:04:37.768Z,40.20
2022-07-28T08:07:06.172Z,38.37
2022-07-28T08:09:33.665Z,38.68
2022-07-28T08:12:00.235Z,38.18
2022-07-28T08:14:26.870Z,37.52
2022-07-28T08:16:54.350Z,37.95
2022-07-28T08:19:21.578Z,37.77
2022-07-28T08:21:48.551Z,36.52
2022-07-28T08:24:32.361Z,36.20
2022-07-28T08:27:01.049Z,35.91
2022-07-28T08:29:27.619Z,35.72
2022-07-28T08:31:54.179Z,35.80
2022-07-28T08:34:29.879Z,35.80
2022-07-28T08:36:59.724Z,35.70
2022-07-28T08:39:26.266Z,36.81
2022-07-28T08:42:09.127Z,38.33
2022-07-28T08:44:51.056Z,37.03
2022-07-28T08:47:18.046Z,37.99
2022-07-28T08:49:47.437Z,37.44
2022-07-28T08:52:14.549Z,37.05
2022-07-28T08:54:46.120Z,37.38
2022-07-28T08:57:20.376Z,37.26
2022-07-28T08:59:49.465Z,36.61
2022-07-28T09:02:16.273Z,37.28
2022-07-28T09:04:45.136Z,36.88
2022-07-28T09:07:12.170Z,37.39
2022-07-28T09:09:40.180Z,36.64
2022-07-28T09:12:07.307Z,36.07
2022-07-28T09:14:34.893Z,36.04
2022-07-28T09:17:02.434Z,35.55
2022-07-28T09:19:34.324Z,35.78
2022-07-28T09:22:02.437Z,35.53
2022-07-28T09:24:36.119Z,36.48
2022-07-28T09:27:07.648Z,36.90
2022-07-28T09:29:35.345Z,37.26
2022-07-28T09:32:02.377Z,37.29
2022-07-28T09:34:29.794Z,38.33
2022-07-28T09:36:56.942Z,37.98
2022-07-28T09:39:33.745Z,37.41
2022-07-28T09:42:00.873Z,37.00
2022-07-28T09:44:28.981Z,37.54
2022-07-28T09:46:57.056Z,37.58
2022-07-28T09:49:41.601Z,37.91
2022-07-28T09:52:09.776Z,37.11
2022-07-28T09:54:40.713Z,37.66
2022-07-28T09:57:11.290Z,37.47
2022-07-28T09:59:42.087Z,37.00
2022-07-28T10:02:11.431Z,36.76
2022-07-28T10:04:40.806Z,36.84
2022-07-28T10:07:16.960Z,36.66
2022-07-28T10:09:44.400Z,37.08
2022-07-28T10:12:23.359Z,36.38
2022-07-28T10:14:52.057Z,36.12
2022-07-28T10:17:34.314Z,36.68
2022-07-28T10:20:03.250Z,36.27
2022-07-28T10:22:33.772Z,36.40
2022-07-28T10:25:07.652Z,36.39
2022-07-28T10:27:34.242Z,36.19
2022-07-28T10:30:04.391Z,36.60
2022-07-28T10:32:41.652Z,35.33
2022-07-28T10:35:11.753Z,34.36
2022-07-28T10:37:43.866Z,34.50
2022-07-28T10:40:12.595Z,34.15
2022-07-28T10:42:40.871Z,33.85
2022-07-28T10:45:11.224Z,33.10
2022-07-28T10:47:37.812Z,33.12
2022-07-28T10:50:05.369Z,32.89
2022-07-28T10:52:51.571Z,33.01
2022-07-28T10:55:41.902Z,33.44
2022-07-28T10:58:47.608Z,33.04
2022-07-28T11:01:49.654Z,33.00
2022-07-28T11:04:41.717Z,32.58
2022-07-28T11:07:12.963Z,32.48
2022-07-28T11:09:39.674Z,32.39
2022-07-28T11:12:06.644Z,32.15
2022-07-28T11:14:39.455Z,31.82
2022-07-28T11:17:10.810Z,31.77
2022-07-28T11:19:55.795Z,32.26
2022-07-28T11:22:30.352Z,32.29
2022-07-28T11:24:58.933Z,31.90
2022-07-28T11:27:45.136Z,33.09
2022-07-28T11:30:33.622Z,31.90
2022-07-28T11:33:01.295Z,31.84
2022-07-28T11:35:30.073Z,32.31
2022-07-28T11:38:02.473Z,31.88
2022-07-28T11:40:36.447Z,32.21
2022-07-28T11:43:22.166Z,32.50
2022-07-28T11:45:55.736Z,32.27
2022-07-28T11:48:23.505Z,32.45
2022-07-28T11:51:05.480Z,31.95
2022-07-28T11:53:36.838Z,31.92
2022-07-28T11:56:08.576Z,31.94
2022-07-28T11:58:35.370Z,32.27
2022-07-28T12:01:21.309Z,33.02
2022-07-28T12:03:55.058Z,32.76
2022-07-28T12:06:26.270Z,33.04
2022-07-28T12:08:57.660Z,33.44
2022-07-28T12:11:26.099Z,33.92
2022-07-28T12:14:09.695Z,33.55
2022-07-28T12:16:39.673Z,33.63
2022-07-28T12:19:07.918Z,33.23
2022-07-28T12:21:46.361Z,33.21
2022-07-28T12:24:45.958Z,32.65
2022-07-28T12:27:15.378Z,32.70
2022-07-28T12:29:43.613Z,32.42
2022-07-28T12:32:10.678Z,32.19
2022-07-28T12:34:40.350Z,32.19
2022-07-28T12:37:12.636Z,31.96
2022-07-28T12:39:42.331Z,31.83
2022-07-28T12:42:10.314Z,31.91
2022-07-28T12:44:39.625Z,31.29
2022-07-28T12:47:08.332Z,31.26
2022-07-28T12:49:36.527Z,30.60
2022-07-28T12:52:17.095Z,31.24
2022-07-28T12:54:52.980Z,31.08
2022-07-28T12:57:50.743Z,30.98
2022-07-28T13:00:20.199Z,30.25
2022-07-28T13:02:48.382Z,29.77
2022-07-28T13:05:33.467Z,29.97
2022-07-28T13:08:05.874Z,29.57
2022-07-28T13:10:33.354Z,29.56
2022-07-28T13:13:05.556Z,30.06
2022-07-28T13:15:32.508Z,30.35
2022-07-28T13:18:00.253Z,30.10
2022-07-28T13:20:27.671Z,29.78
2022-07-28T13:22:56.015Z,29.21
2022-07-28T13:25:23.801Z,29.55
2022-07-28T13:27:54.979Z,30.63
2022-07-28T13:30:23.337Z,30.23
2022-07-28T13:32:50.213Z,30.98
2022-07-28T13:35:19.073Z,30.45
2022-07-28T13:37:47.582Z,30.16
2022-07-28T13:40:14.219Z,29.38
2022-07-28T13:42:40.813Z,29.40
2022-07-28T13:45:21.451Z,29.60
2022-07-28T13:47:52.351Z,29.58
2022-07-28T13:50:20.098Z,29.56
2022-07-28T13:52:47.134Z,29.50
2022-07-28T13:55:19.272Z,29.43
2022-07-28T13:57:49.884Z,29.26
2022-07-28T14:00:18.657Z,29.35
2022-07-28T14:02:47.153Z,29.53
2022-07-28T14:05:14.491Z,29.22
2022-07-28T14:07:42.156Z,29.14
2022-07-28T14:10:15.531Z,29.30
2022-07-28T14:12:42.108Z,29.16
2022-07-28T14:15:11.707Z,28.78
2022-07-28T14:17:44.903Z,29.05
2022-07-28T14:20:15.205Z,29.23
2022-07-28T14:22:43.194Z,29.13
2022-07-28T14:25:10.304Z,28.84
2022-07-28T14:27:36.876Z,29.27
2022-07-28T14:30:04.598Z,29.20
2022-07-28T14:32:32.819Z,28.92
2022-07-28T14:34:59.572Z,29.35
2022-07-28T14:37:26.231Z,29.20
2022-07-28T14:39:52.904Z,28.90
2022-07-28T14:42:19.750Z,29.00
2022-07-28T14:44:46.340Z,29.64
2022-07-28T14:47:13.010Z,28.95
2022-07-28T14:49:57.154Z,29.13
2022-07-28T14:52:26.423Z,29.54
2022-07-28T14:54:54.078Z,29.05
2022-07-28T14:57:20.948Z,29.37
2022-07-28T14:59:51.296Z,29.58
2022-07-28T15:02:18.018Z,29.71
2022-07-28T15:04:45.192Z,30.08
2022-07-28T15:07:12.059Z,29.92
2022-07-28T15:09:42.272Z,30.37
2022-07-28T15:12:10.823Z,30.12
2022-07-28T15:14:37.379Z,30.31
2022-07-28T15:17:04.039Z,30.27
2022-07-28T15:19:33.512Z,30.57
2022-07-28T15:22:01.134Z,30.71
2022-07-28T15:24:30.566Z,31.15
2022-07-28T15:26:57.774Z,30.92
2022-07-28T15:29:24.396Z,31.23
2022-07-28T15:31:52.202Z,30.73
2022-07-28T15:34:19.613Z,30.95
2022-07-28T15:36:46.501Z,30.84
2022-07-28T15:39:16.325Z,30.93
2022-07-28T15:41:44.684Z,31.52
2022-07-28T15:44:13.176Z,31.53
2022-07-28T15:46:41.007Z,31.29
2022-07-28T15:49:10.182Z,31.03
2022-07-28T15:51:37.736Z,31.07
2022-07-28T15:54:05.217Z,31.48
2022-07-28T15:56:36.210Z,31.04
2022-07-28T15:59:04.813Z,31.42
2022-07-28T16:01:32.187Z,31.63
2022-07-28T16:04:00.042Z,31.53
2022-07-28T16:06:47.775Z,31.75
2022-07-28T16:09:15.100Z,31.80
2022-07-28T16:11:41.670Z,31.85
2022-07-28T16:14:08.409Z,31.16
2022-07-28T16:16:35.146Z,32.01
2022-07-28T16:19:01.717Z,31.68
2022-07-28T16:21:29.405Z,31.51
2022-07-28T16:23:56.047Z,31.82
2022-07-28T16:26:22.650Z,31.78
2022-07-28T16:28:49.238Z,32.03
2022-07-28T16:31:16.810Z,32.40
2022-07-28T16:33:43.388Z,32.14
2022-07-28T16:36:10.032Z,32.31
2022-07-28T16:38:36.721Z,32.10
2022-07-28T16:41:03.635Z,32.30
2022-07-28T16:43:31.424Z,32.30
2022-07-28T16:45:58.106Z,32.73
2022-07-28T16:48:24.817Z,32.68
2022-07-28T16:50:51.370Z,33.25
2022-07-28T16:53:18.032Z,33.00
2022-07-28T16:55:46.971Z,32.88
2022-07-28T16:58:13.948Z,32.97
2022-07-28T17:00:40.736Z,32.88
2022-07-28T17:03:07.364Z,32.43
2022-07-28T17:05:37.738Z,32.79
2022-07-28T17:08:04.964Z,32.63
2022-07-28T17:10:31.662Z,32.47
2022-07-28T17:12:58.629Z,32.27
2022-07-28T17:15:25.548Z,32.40
2022-07-28T17:17:52.821Z,32.59
2022-07-28T17:20:20.685Z,31.92
2022-07-28T17:22:47.513Z,32.06
2022-07-28T17:28:01.189Z,32.20
2022-07-28T17:30:28.118Z,32.02
2022-07-28T17:32:58.789Z,32.10
2022-07-28T17:35:31.595Z,32.54
2022-07-28T17:38:01.281Z,32.25
2022-07-28T17:40:27.976Z,32.31
2022-07-28T17:42:54.551Z,32.06
2022-07-28T17:45:21.456Z,32.24
2022-07-28T17:47:48.184Z,32.25
2022-07-28T17:50:14.857Z,32.25
2022-07-28T17:52:45.386Z,32.29
2022-07-28T17:55:34.485Z,32.49
2022-07-28T17:58:22.739Z,32.64
2022-07-28T18:00:58.080Z,32.67
2022-07-28T18:03:25.833Z,32.81
2022-07-28T18:05:52.689Z,33.19
2022-07-28T18:08:20.024Z,32.95
2022-07-28T18:10:50.385Z,33.10
2022-07-28T18:13:17.948Z,33.51
2022-07-28T18:15:44.592Z,33.42
2022-07-28T18:18:11.346Z,33.34
2022-07-28T18:20:39.160Z,33.61
2022-07-28T18:23:07.726Z,33.58
2022-07-28T18:25:36.120Z,33.56
2022-07-28T18:28:04.461Z,34.12
2022-07-28T18:30:31.945Z,34.12
2022-07-28T18:32:58.496Z,34.15
2022-07-28T18:35:25.172Z,34.23
2022-07-28T18:37:51.891Z,34.23
2022-07-28T18:40:21.549Z,34.50
2022-07-28T18:42:48.682Z,34.44
2022-07-28T18:45:16.404Z,34.70
2022-07-28T18:47:45.599Z,34.86
2022-07-28T18:50:30.576Z,34.93
2022-07-28T18:52:57.862Z,35.48
2022-07-28T18:55:24.684Z,35.38
2022-07-28T18:57:51.306Z,35.31
2022-07-28T19:00:17.961Z,35.31
2022-07-28T19:02:44.620Z,35.83
2022-07-28T19:05:11.276Z,36.24
2022-07-28T19:07:37.912Z,36.22
2022-07-28T19:10:05.400Z,35.90
2022-07-28T19:12:34.169Z,36.35
2022-07-28T19:15:01.576Z,36.65
2022-07-28T19:17:28.753Z,36.69
2022-07-28T19:19:59.674Z,36.64
2022-07-28T19:22:26.258Z,36.92
2022-07-28T19:24:53.130Z,37.12
2022-07-28T19:27:20.624Z,37.30
2022-07-28T19:29:47.282Z,37.27
2022-07-28T19:32:13.948Z,37.68
2022-07-28T19:34:43.014Z,37.64
2022-07-28T19:37:10.153Z,37.77
2022-07-28T19:39:45.825Z,37.88
2022-07-28T19:42:12.740Z,37.87
2022-07-28T19:44:39.589Z,37.97
2022-07-28T19:47:06.382Z,37.99
2022-07-28T19:49:32.960Z,38.21
2022-07-28T19:51:59.734Z,38.45
2022-07-28T19:54:26.680Z,38.46
2022-07-28T19:56:54.064Z,38.70
2022-07-28T19:59:22.254Z,38.96
2022-07-28T20:01:50.609Z,38.79
2022-07-28T20:04:18.237Z,38.81
2022-07-28T20:06:45.011Z,38.80
2022-07-28T20:09:12.721Z,39.26
2022-07-28T20:11:41.064Z,38.69
2022-07-28T20:14:08.122Z,38.40
2022-07-28T20:16:34.883Z,38.67
2022-07-28T20:19:02.628Z,38.42
2022-07-28T20:21:29.564Z,38.62
2022-07-28T20:24:07.003Z,38.09
2022-07-28T20:26:33.674Z,38.49
2022-07-28T20:29:01.870Z,38.61
2022-07-28T20:31:28.946Z,38.63
2022-07-28T20:33:56.583Z,38.65
2022-07-28T20:36:27.780Z,38.92
2022-07-28T20:38:57.380Z,38.91
2022-07-28T20:41:24.009Z,38.71
2022-07-28T20:44:11.277Z,38.82
2022-07-28T20:46:37.316Z,38.74
2022-07-28T20:49:04.036Z,38.67
2022-07-28T20:51:30.648Z,38.75
2022-07-28T20:53:57.713Z,38.64
2022-07-28T20:56:24.251Z,38.93
2022-07-28T20:58:50.843Z,38.98
2022-07-28T21:01:17.636Z,38.77
2022-07-28T21:03:48.104Z,38.92
2022-07-28T21:06:14.730Z,38.97
2022-07-28T21:08:41.294Z,39.03
2022-07-28T21:11:08.760Z,39.26
2022-07-28T21:13:35.754Z,39.37
2022-07-28T21:16:02.488Z,38.89
2022-07-28T21:18:29.234Z,38.66
2022-07-28T21:20:55.779Z,38.65
2022-07-28T21:23:22.431Z,39.44
2022-07-28T21:25:51.382Z,39.17
2022-07-28T21:28:36.804Z,39.22
2022-07-28T21:31:03.479Z,39.24
2022-07-28T21:33:30.200Z,39.24
2022-07-28T21:35:56.826Z,39.16
2022-07-28T21:38:23.546Z,39.19
2022-07-28T21:40:50.300Z,39.26
2022-07-28T21:43:17.018Z,39.61
2022-07-28T21:45:45.716Z,39.54
2022-07-28T21:48:12.679Z,39.45
2022-07-28T21:50:39.781Z,39.64
2022-07-28T21:53:06.385Z,39.43
2022-07-28T21:55:33.193Z,39.27
2022-07-28T21:57:59.822Z,39.05
2022-07-28T22:00:26.472Z,39.09
2022-07-28T22:02:53.253Z,39.15
2022-07-28T22:05:20.693Z,39.42
2022-07-28T22:07:48.368Z,39.59
2022-07-28T22:10:15.385Z,39.79
2022-07-28T22:12:42.029Z,39.96
2022-07-28T22:15:08.968Z,39.61
2022-07-28T22:17:35.526Z,40.03
2022-07-28T22:20:06.217Z,40.03
2022-07-28T22:22:53.911Z,39.92
2022-07-28T22:25:20.559Z,40.00
2022-07-28T22:27:47.123Z,39.88
2022-07-28T22:30:14.087Z,40.04
2022-07-28T22:32:40.607Z,40.04
2022-07-28T22:35:08.420Z,40.06
2022-07-28T22:37:34.966Z,40.06
2022-07-28T22:40:01.643Z,40.15
2022-07-28T22:42:28.294Z,40.16
2022-07-28T22:44:54.992Z,40.11
2022-07-28T22:47:21.509Z,39.87
2022-07-28T22:49:48.235Z,40.13
2022-07-28T22:52:14.846Z,40.05
2022-07-28T22:54:41.431Z,39.74
2022-07-28T22:57:07.965Z,40.06
2022-07-28T22:59:39.777Z,39.97
2022-07-28T23:02:07.058Z,40.15
2022-07-28T23:04:33.798Z,40.57
2022-07-28T23:07:00.445Z,40.50
2022-07-28T23:09:27.242Z,40.30
2022-07-28T23:11:55.743Z,40.71
2022-07-28T23:14:22.901Z,40.97
2022-07-28T23:16:49.775Z,40.91
2022-07-28T23:19:16.495Z,40.95
2022-07-28T23:21:43.065Z,41.18
2022-07-28T23:24:09.701Z,40.89
2022-07-28T23:26:36.363Z,40.71
2022-07-28T23:29:02.903Z,41.20
2022-07-28T23:31:29.650Z,40.96
2022-07-28T23:33:57.643Z,40.90
2022-07-28T23:36:26.718Z,41.03
2022-07-28T23:38:56.158Z,40.93
2022-07-28T23:41:22.751Z,41.21
2022-07-28T23:43:49.522Z,40.95
2022-07-28T23:46:16.096Z,41.21
2022-07-28T23:48:43.689Z,41.39
2022-07-28T23:51:10.433Z,41.19
2022-07-28T23:53:38.458Z,41.32
2022-07-28T23:56:05.438Z,40.88
2022-07-28T23:58:32.120Z,41.41
